logo
Search for airport 
image banner adimage banner adimage banner ad
image banner ad

EHBID - Biddinghuizen

Located in , Netherlands

ICAO - , IATA -

Data provided by Airmate  

General information

Coordinates: N52°25'45" E5°40'27"
Elevation is -13 feet MSL.
 
View others Airports in Flevoland

Operational data

Special qualification required
Current time UTC:
Current local time:
Weather at : EHLE - Lelystad/Lelystad ( 11 km )
METAR: EHLE 171225Z AUTO 21013KT 170V250 9999 BKN036 OVC043 21/12 Q1011 NOSIG
TAF: TAF EHLE 171117Z 1712/1818 24010KT 9999 SCT030 BECMG 1717/1720 VRB02KT CAVOK PROB30 TEMPO 1802/1805 2000 BCFG BECMG 1814/1817 04007KT PROB40 TEMPO 1814/1818 5000 RA SHRA SCT045CB
View NOTAMs / SUP AIP / TFR affecting this airport [VIEW]
Communications frequencies: [VIEW]

Runways:

RWY identifierQFULength (ft)Width (ft)SurfaceLDA (ft)
0538°3937164GRASS
23218°3937164GRASS

Airport contact information

Address: Netherlands

Satellite view of EHBID